Delphinus — IROA — position and weather

sailwx.info

Track history (hours):
 
Tides and Currents Weather Stations Pressure Air Temp Water Temp Dewpoint Dewpoint Depression Visibility Wind Speed Wind Dir Waves Ship Positions

Delphinus

Last reported at 2017-Jun-13 14:10 UTC. Time now 2017-Jun-27 07:15 UTC.
Position N 40°34' E 008°13'.
Warning: this ship's position is 13 days out of date.

Length 25 m.

Type: Passenger vessel. MMSI: 247121500.

Date/timePositionNaut miles runAvg speedWind from/ knotsBaromVisibWave heightAir tempDewpointWater temp
2017-Jun-13 14:10N 40°34' E 008°13'2 3.5
2017-Jun-13 13:29N 40°34' E 008°10'0 0.1
2017-Jun-13 12:53N 40°34' E 008°10'1 3.1
2017-Jun-13 12:26N 40°34' E 008°11'612.1
2017-Jun-13 11:58N 40°34' E 008°19'0 0.0
2017-Jun-13 10:29N 40°34' E 008°19'7 9.8
2017-Jun-13 09:46N 40°34' E 008°10'0 0.0
2017-Jun-13 09:24N 40°34' E 008°10'0 0.0
2017-Jun-12 13:23N 40°34' E 008°10'0 0.4
2017-Jun-12 12:40N 40°34' E 008°09'7 8.8
2017-Jun-12 11:50N 40°34' E 008°19'0 0.0
2017-Jun-12 11:22N 40°34' E 008°19'0 0.0
2017-Jun-11 15:35N 40°34' E 008°19'1 9.5
2017-Jun-11 15:28N 40°34' E 008°17'5 9.1
2017-Jun-11 14:51N 40°34' E 008°10'0 1.3
2017-Jun-11 14:29N 40°34' E 008°10'2 1.7
2017-Jun-11 13:28N 40°34' E 008°12'5 9.8
2017-Jun-11 12:55N 40°34' E 008°19'0 0.0
2017-Jun-11 12:29N 40°34' E 008°19'0 0.0
2017-Jun-11 11:18N 40°34' E 008°19'0 0.0
2017-Jun-11 10:58N 40°34' E 008°19'3 3.3
2017-Jun-11 10:01N 40°34' E 008°15'114.2
2017-Jun-11 09:56N 40°34' E 008°13'2 5.1
2017-Jun-11 09:30N 40°33' E 008°10'0 0.7
2017-Jun-11 09:00N 40°34' E 008°10'5 6.5
2017-Jun-11 08:18N 40°34' E 008°16'2 2.3
2017-Jun-11 07:24N 40°34' E 008°19'0 0.0
2017-Jun-11 06:54N 40°34' E 008°19'0 0.0
2017-Jun-10 14:47N 40°34' E 008°19'7 8.9
2017-Jun-10 13:59N 40°34' E 008°09'0 0.4
2017-Jun-10 13:29N 40°34' E 008°10'0 0.0
2017-Jun-10 12:56N 40°34' E 008°10'3 5.7
2017-Jun-10 12:23N 40°34' E 008°14'4 8.2
2017-Jun-10 11:54N 40°34' E 008°19'0 0.0
2017-Jun-10 11:30N 40°34' E 008°19'0 0.0
2017-Jun-10 10:54N 40°34' E 008°19'0 0.1
2017-Jun-10 10:28N 40°34' E 008°19'612.2
2017-Jun-10 09:58N 40°34' E 008°11'1 2.0
2017-Jun-10 09:28N 40°34' E 008°10'0 0.0
2017-Jun-10 08:58N 40°34' E 008°10'3 5.7
2017-Jun-10 08:22N 40°34' E 008°14'4 9.3
2017-Jun-10 07:59N 40°34' E 008°19'0 0.0
2017-Jun-10 07:10N 40°34' E 008°19'0 0.0
2017-Jun-10 07:00N 40°34' E 008°19'0 0.0
2017-Jun-09 15:31N 40°34' E 008°19'0 7.5
2017-Jun-09 15:29N 40°34' E 008°19'713.4
2017-Jun-09 14:59N 40°35' E 008°10'1 1.3
2017-Jun-09 14:27N 40°34' E 008°10'4 3.2
2017-Jun-09 13:21N 40°34' E 008°14'4 3.7
2017-Jun-09 12:23N 40°34' E 008°19'0 0.0
2017-Jun-09 11:58N 40°34' E 008°19'2 4.6
2017-Jun-09 11:28N 40°34' E 008°16'5 9.4
2017-Jun-09 10:58N 40°34' E 008°10'0 0.4
2017-Jun-09 09:58N 40°34' E 008°10'4 6.9
2017-Jun-09 09:22N 40°34' E 008°15'3 5.1
2017-Jun-09 08:48N 40°34' E 008°19'0 0.0
2017-Jun-09 07:45N 40°34' E 008°19'0 0.0
2017-Jun-09 06:56N 40°34' E 008°19'0 0.0
2017-Jun-08 12:25N 40°34' E 008°19'610.4
2017-Jun-08 11:53N 40°34' E 008°12'2 4.0
2017-Jun-08 11:30N 40°34' E 008°10'0 0.1
2017-Jun-08 10:59N 40°34' E 008°10'4 7.0
2017-Jun-08 10:26N 40°34' E 008°15'3 6.4
2017-Jun-08 09:56N 40°34' E 008°19'0 0.0
2017-Jun-08 09:30N 40°34' E 008°19'0 0.0
2017-Jun-08 08:56N 40°34' E 008°19'0 0.0
2017-Jun-08 08:29N 40°34' E 008°19'0 0.0
2017-Jun-08 07:59N 40°34' E 008°19'0 0.0
2017-Jun-08 07:20N 40°34' E 008°19'0 0.0
2017-Jun-08 07:00N 40°34' E 008°19'0 0.0
2017-Jun-07 15:01N 40°34' E 008°19'0 2.0
2017-Jun-07 15:00N 40°34' E 008°19'7 6.7
2017-Jun-07 13:58N 40°35' E 008°10'1 2.4
2017-Jun-07 13:29N 40°34' E 008°11'612.6
2017-Jun-07 13:00N 40°34' E 008°19'0 0.2
2017-Jun-07 12:29N 40°34' E 008°19'0 0.0
2017-Jun-07 12:00N 40°34' E 008°19'0 0.0
2017-Jun-07 11:29N 40°34' E 008°19'0 0.0
2017-Jun-07 11:00N 40°34' E 008°19'0 0.0
2017-Jun-07 10:30N 40°34' E 008°19'0 0.7
2017-Jun-07 09:56N 40°34' E 008°18'511.1
2017-Jun-07 09:28N 40°35' E 008°12'2 2.6
2017-Jun-07 08:52N 40°35' E 008°10'1 1.8
2017-Jun-07 08:30N 40°34' E 008°10'510.4
2017-Jun-07 07:58N 40°34' E 008°17'1 2.6
2017-Jun-07 07:29N 40°34' E 008°19'0 0.0
2017-Jun-07 06:49N 40°34' E 008°19'0 0.0
2017-Jun-06 15:10N 40°34' E 008°19'0 0.5
2017-Jun-06 14:58N 40°34' E 008°19'0 0.3
2017-Jun-06 14:29N 40°34' E 008°19'7 6.6
2017-Jun-06 13:25N 40°34' E 008°10'0 0.1
2017-Jun-06 12:58N 40°34' E 008°10'2 4.3
2017-Jun-06 12:26N 40°34' E 008°13'510.3
2017-Jun-06 11:59N 40°34' E 008°19'0 0.0
2017-Jun-06 11:28N 40°34' E 008°19'0 0.0
2017-Jun-06 11:00N 40°34' E 008°19'2 3.9
2017-Jun-06 10:28N 40°34' E 008°16'5 9.0
2017-Jun-06 09:55N 40°34' E 008°10'0 0.7
2017-Jun-06 09:28N 40°34' E 008°10'0 0.7
2017-Jun-06 08:57N 40°34' E 008°10'5 9.1
2017-Jun-06 08:25N 40°34' E 008°16'2 5.4
2017-Jun-06 08:00N 40°34' E 008°19'0 0.0
2017-Jun-05 14:53N 40°34' E 008°19'0 0.1
2017-Jun-05 14:30N 40°34' E 008°19'7 6.8
2017-Jun-05 13:28N 40°34' E 008°10'0 0.0
2017-Jun-05 12:58N 40°34' E 008°10'2 3.4
2017-Jun-05 12:29N 40°34' E 008°12'510.6
2017-Jun-05 11:58N 40°34' E 008°19'0 0.0
2017-Jun-05 11:30N 40°34' E 008°19'0 0.0
2017-Jun-05 11:00N 40°34' E 008°19'0 0.0
2017-Jun-05 10:30N 40°34' E 008°19'5 9.1
2017-Jun-05 09:59N 40°34' E 008°13'2 4.3
2017-Jun-05 09:28N 40°34' E 008°10'0 0.0
2017-Jun-05 08:59N 40°34' E 008°10'0 0.6
2017-Jun-05 08:29N 40°34' E 008°10'7 4.8
2017-Jun-05 07:02N 40°34' E 008°19'0 0.0
2017-Jun-05 06:59N 40°34' E 008°19'4 0.2
2017-Jun-04 14:19N 40°34' E 008°14'3 3.8
2017-Jun-04 13:24N 40°34' E 008°10'0 0.1
2017-Jun-04 12:53N 40°34' E 008°10'3 6.6
2017-Jun-04 12:28N 40°34' E 008°13'4 7.4
2017-Jun-04 11:53N 40°34' E 008°19'0 0.0
2017-Jun-04 11:30N 40°34' E 008°19'0 0.1
2017-Jun-04 10:28N 40°34' E 008°19'710.7
2017-Jun-04 09:50N 40°34' E 008°10'1 2.0
2017-Jun-04 09:29N 40°35' E 008°10'1 1.3
2017-Jun-04 08:58N 40°34' E 008°10'3 5.4
2017-Jun-04 08:30N 40°34' E 008°13'4 9.0
2017-Jun-04 08:00N 40°34' E 008°19'0 0.0
2017-Jun-04 07:28N 40°34' E 008°19'  
Track history (hours):
 
Tides and Currents Weather Stations Pressure Air Temp Water Temp Dewpoint Dewpoint Depression Visibility Wind Speed Wind Dir Waves Ship Positions

Delphinus

Last reported at 2017-Jun-13 14:10 UTC. Time now 2017-Jun-27 07:15 UTC.
Position N 40°34' E 008°13'.
Warning: this ship's position is 13 days out of date.

Length 25 m.

Type: Passenger vessel. MMSI: 247121500.

Date/timePositionNaut miles runAvg speedWind from/ knotsBaromVisibWave heightAir tempDewpointWater temp
2017-Jun-13 14:10N 40°34' E 008°13'2 3.5
2017-Jun-13 13:29N 40°34' E 008°10'0 0.1
2017-Jun-13 12:53N 40°34' E 008°10'1 3.1
2017-Jun-13 12:26N 40°34' E 008°11'612.1
2017-Jun-13 11:58N 40°34' E 008°19'0 0.0
2017-Jun-13 10:29N 40°34' E 008°19'7 9.8
2017-Jun-13 09:46N 40°34' E 008°10'0 0.0
2017-Jun-13 09:24N 40°34' E 008°10'0 0.0
2017-Jun-12 13:23N 40°34' E 008°10'0 0.4
2017-Jun-12 12:40N 40°34' E 008°09'7 8.8
2017-Jun-12 11:50N 40°34' E 008°19'0 0.0
2017-Jun-12 11:22N 40°34' E 008°19'0 0.0
2017-Jun-11 15:35N 40°34' E 008°19'1 9.5
2017-Jun-11 15:28N 40°34' E 008°17'5 9.1
2017-Jun-11 14:51N 40°34' E 008°10'0 1.3
2017-Jun-11 14:29N 40°34' E 008°10'2 1.7
2017-Jun-11 13:28N 40°34' E 008°12'5 9.8
2017-Jun-11 12:55N 40°34' E 008°19'0 0.0
2017-Jun-11 12:29N 40°34' E 008°19'0 0.0
2017-Jun-11 11:18N 40°34' E 008°19'0 0.0
2017-Jun-11 10:58N 40°34' E 008°19'3 3.3
2017-Jun-11 10:01N 40°34' E 008°15'114.2
2017-Jun-11 09:56N 40°34' E 008°13'2 5.1
2017-Jun-11 09:30N 40°33' E 008°10'0 0.7
2017-Jun-11 09:00N 40°34' E 008°10'5 6.5
2017-Jun-11 08:18N 40°34' E 008°16'2 2.3
2017-Jun-11 07:24N 40°34' E 008°19'0 0.0
2017-Jun-11 06:54N 40°34' E 008°19'0 0.0
2017-Jun-10 14:47N 40°34' E 008°19'7 8.9
2017-Jun-10 13:59N 40°34' E 008°09'0 0.4
2017-Jun-10 13:29N 40°34' E 008°10'0 0.0
2017-Jun-10 12:56N 40°34' E 008°10'3 5.7
2017-Jun-10 12:23N 40°34' E 008°14'4 8.2
2017-Jun-10 11:54N 40°34' E 008°19'0 0.0
2017-Jun-10 11:30N 40°34' E 008°19'0 0.0
2017-Jun-10 10:54N 40°34' E 008°19'0 0.1
2017-Jun-10 10:28N 40°34' E 008°19'612.2
2017-Jun-10 09:58N 40°34' E 008°11'1 2.0
2017-Jun-10 09:28N 40°34' E 008°10'0 0.0
2017-Jun-10 08:58N 40°34' E 008°10'3 5.7
2017-Jun-10 08:22N 40°34' E 008°14'4 9.3
2017-Jun-10 07:59N 40°34' E 008°19'0 0.0
2017-Jun-10 07:10N 40°34' E 008°19'0 0.0
2017-Jun-10 07:00N 40°34' E 008°19'0 0.0
2017-Jun-09 15:31N 40°34' E 008°19'0 7.5
2017-Jun-09 15:29N 40°34' E 008°19'713.4
2017-Jun-09 14:59N 40°35' E 008°10'1 1.3
2017-Jun-09 14:27N 40°34' E 008°10'4 3.2
2017-Jun-09 13:21N 40°34' E 008°14'4 3.7
2017-Jun-09 12:23N 40°34' E 008°19'0 0.0
2017-Jun-09 11:58N 40°34' E 008°19'2 4.6
2017-Jun-09 11:28N 40°34' E 008°16'5 9.4
2017-Jun-09 10:58N 40°34' E 008°10'0 0.4
2017-Jun-09 09:58N 40°34' E 008°10'4 6.9
2017-Jun-09 09:22N 40°34' E 008°15'3 5.1
2017-Jun-09 08:48N 40°34' E 008°19'0 0.0
2017-Jun-09 07:45N 40°34' E 008°19'0 0.0
2017-Jun-09 06:56N 40°34' E 008°19'0 0.0
2017-Jun-08 12:25N 40°34' E 008°19'610.4
2017-Jun-08 11:53N 40°34' E 008°12'2 4.0
2017-Jun-08 11:30N 40°34' E 008°10'0 0.1
2017-Jun-08 10:59N 40°34' E 008°10'4 7.0
2017-Jun-08 10:26N 40°34' E 008°15'3 6.4
2017-Jun-08 09:56N 40°34' E 008°19'0 0.0
2017-Jun-08 09:30N 40°34' E 008°19'0 0.0
2017-Jun-08 08:56N 40°34' E 008°19'0 0.0
2017-Jun-08 08:29N 40°34' E 008°19'0 0.0
2017-Jun-08 07:59N 40°34' E 008°19'0 0.0
2017-Jun-08 07:20N 40°34' E 008°19'0 0.0
2017-Jun-08 07:00N 40°34' E 008°19'0 0.0
2017-Jun-07 15:01N 40°34' E 008°19'0 2.0
2017-Jun-07 15:00N 40°34' E 008°19'7 6.7
2017-Jun-07 13:58N 40°35' E 008°10'1 2.4
2017-Jun-07 13:29N 40°34' E 008°11'612.6
2017-Jun-07 13:00N 40°34' E 008°19'0 0.2
2017-Jun-07 12:29N 40°34' E 008°19'0 0.0
2017-Jun-07 12:00N 40°34' E 008°19'0 0.0
2017-Jun-07 11:29N 40°34' E 008°19'0 0.0
2017-Jun-07 11:00N 40°34' E 008°19'0 0.0
2017-Jun-07 10:30N 40°34' E 008°19'0 0.7
2017-Jun-07 09:56N 40°34' E 008°18'511.1
2017-Jun-07 09:28N 40°35' E 008°12'2 2.6
2017-Jun-07 08:52N 40°35' E 008°10'1 1.8
2017-Jun-07 08:30N 40°34' E 008°10'510.4
2017-Jun-07 07:58N 40°34' E 008°17'1 2.6
2017-Jun-07 07:29N 40°34' E 008°19'0 0.0
2017-Jun-07 06:49N 40°34' E 008°19'0 0.0
2017-Jun-06 15:10N 40°34' E 008°19'0 0.5
2017-Jun-06 14:58N 40°34' E 008°19'0 0.3
2017-Jun-06 14:29N 40°34' E 008°19'7 6.6
2017-Jun-06 13:25N 40°34' E 008°10'0 0.1
2017-Jun-06 12:58N 40°34' E 008°10'2 4.3
2017-Jun-06 12:26N 40°34' E 008°13'510.3
2017-Jun-06 11:59N 40°34' E 008°19'0 0.0
2017-Jun-06 11:28N 40°34' E 008°19'0 0.0
2017-Jun-06 11:00N 40°34' E 008°19'2 3.9
2017-Jun-06 10:28N 40°34' E 008°16'5 9.0
2017-Jun-06 09:55N 40°34' E 008°10'0 0.7
2017-Jun-06 09:28N 40°34' E 008°10'0 0.7
2017-Jun-06 08:57N 40°34' E 008°10'5 9.1
2017-Jun-06 08:25N 40°34' E 008°16'2 5.4
2017-Jun-06 08:00N 40°34' E 008°19'0 0.0
2017-Jun-05 14:53N 40°34' E 008°19'0 0.1
2017-Jun-05 14:30N 40°34' E 008°19'7 6.8
2017-Jun-05 13:28N 40°34' E 008°10'0 0.0
2017-Jun-05 12:58N 40°34' E 008°10'2 3.4
2017-Jun-05 12:29N 40°34' E 008°12'510.6
2017-Jun-05 11:58N 40°34' E 008°19'0 0.0
2017-Jun-05 11:30N 40°34' E 008°19'0 0.0
2017-Jun-05 11:00N 40°34' E 008°19'0 0.0
2017-Jun-05 10:30N 40°34' E 008°19'5 9.1
2017-Jun-05 09:59N 40°34' E 008°13'2 4.3
2017-Jun-05 09:28N 40°34' E 008°10'0 0.0
2017-Jun-05 08:59N 40°34' E 008°10'0 0.6
2017-Jun-05 08:29N 40°34' E 008°10'7 4.8
2017-Jun-05 07:02N 40°34' E 008°19'0 0.0
2017-Jun-05 06:59N 40°34' E 008°19'4 0.2
2017-Jun-04 14:19N 40°34' E 008°14'3 3.8
2017-Jun-04 13:24N 40°34' E 008°10'0 0.1
2017-Jun-04 12:53N 40°34' E 008°10'3 6.6
2017-Jun-04 12:28N 40°34' E 008°13'4 7.4
2017-Jun-04 11:53N 40°34' E 008°19'0 0.0
2017-Jun-04 11:30N 40°34' E 008°19'0 0.1
2017-Jun-04 10:28N 40°34' E 008°19'710.7
2017-Jun-04 09:50N 40°34' E 008°10'1 2.0
2017-Jun-04 09:29N 40°35' E 008°10'1 1.3
2017-Jun-04 08:58N 40°34' E 008°10'3 5.4
2017-Jun-04 08:30N 40°34' E 008°13'4 9.0
2017-Jun-04 08:00N 40°34' E 008°19'0 0.0
2017-Jun-04 07:28N 40°34' E 008°19'  

Dump ship's entire track history